sensor_id;sensor_type;location;lat;lon;timestamp;temperature;humidity
4874;DHT22;2451;49.970;9.068;2023-12-04T00:01:32;-2.60;99.90
4874;DHT22;2451;49.970;9.068;2023-12-04T00:03:58;-2.60;99.90
4874;DHT22;2451;49.970;9.068;2023-12-04T00:06:23;-2.60;99.90
4874;DHT22;2451;49.970;9.068;2023-12-04T00:08:49;-2.70;99.90
4874;DHT22;2451;49.970;9.068;2023-12-04T00:11:14;-2.70;99.90
4874;DHT22;2451;49.970;9.068;2023-12-04T00:13:40;-2.70;99.90
4874;DHT22;2451;49.970;9.068;2023-12-04T00:16:06;-2.70;99.90
4874;DHT22;2451;49.970;9.068;2023-12-04T00:18:32;-2.70;99.90
4874;DHT22;2451;49.970;9.068;2023-12-04T00:20:57;-2.70;99.90
4874;DHT22;2451;49.970;9.068;2023-12-04T00:23:23;-2.70;99.90
4874;DHT22;2451;49.970;9.068;2023-12-04T00:25:48;-2.70;99.90
4874;DHT22;2451;49.970;9.068;2023-12-04T00:28:14;-2.70;99.90
4874;DHT22;2451;49.970;9.068;2023-12-04T00:30:39;-2.70;99.90
4874;DHT22;2451;49.970;9.068;2023-12-04T00:33:05;-2.70;99.90
4874;DHT22;2451;49.970;9.068;2023-12-04T00:35:30;-2.80;99.90
4874;DHT22;2451;49.970;9.068;2023-12-04T00:37:56;-2.80;99.90
4874;DHT22;2451;49.970;9.068;2023-12-04T00:40:22;-2.80;99.90
4874;DHT22;2451;49.970;9.068;2023-12-04T00:42:48;-2.80;99.90
4874;DHT22;2451;49.970;9.068;2023-12-04T00:45:13;-2.80;99.90
4874;DHT22;2451;49.970;9.068;2023-12-04T00:47:39;-2.80;99.90
4874;DHT22;2451;49.970;9.068;2023-12-04T00:50:05;-2.80;99.90
4874;DHT22;2451;49.970;9.068;2023-12-04T00:52:30;-2.80;99.90
4874;DHT22;2451;49.970;9.068;2023-12-04T00:54:56;-2.80;99.90
4874;DHT22;2451;49.970;9.068;2023-12-04T00:57:21;-2.90;99.90
4874;DHT22;2451;49.970;9.068;2023-12-04T00:59:47;-2.90;99.90
4874;DHT22;2451;49.970;9.068;2023-12-04T01:02:12;-2.90;99.90
4874;DHT22;2451;49.970;9.068;2023-12-04T01:04:41;-2.90;99.90
4874;DHT22;2451;49.970;9.068;2023-12-04T01:07:07;-2.90;99.90
4874;DHT22;2451;49.970;9.068;2023-12-04T01:09:35;-2.90;99.90
4874;DHT22;2451;49.970;9.068;2023-12-04T01:12:00;-2.90;99.90
4874;DHT22;2451;49.970;9.068;2023-12-04T01:14:26;-2.90;99.90
4874;DHT22;2451;49.970;9.068;2023-12-04T01:16:51;-3.00;99.90
4874;DHT22;2451;49.970;9.068;2023-12-04T01:19:17;-3.00;99.90
4874;DHT22;2451;49.970;9.068;2023-12-04T01:21:42;-3.00;99.90
4874;DHT22;2451;49.970;9.068;2023-12-04T01:24:08;-3.00;99.90
4874;DHT22;2451;49.970;9.068;2023-12-04T01:26:33;-3.10;99.90
4874;DHT22;2451;49.970;9.068;2023-12-04T01:28:59;-3.00;99.90
4874;DHT22;2451;49.970;9.068;2023-12-04T01:31:25;-3.10;99.90
4874;DHT22;2451;49.970;9.068;2023-12-04T01:33:50;-3.10;99.90
4874;DHT22;2451;49.970;9.068;2023-12-04T01:36:16;-3.10;99.90
4874;DHT22;2451;49.970;9.068;2023-12-04T01:38:41;-3.10;99.90
4874;DHT22;2451;49.970;9.068;2023-12-04T01:41:07;-3.10;99.90
4874;DHT22;2451;49.970;9.068;2023-12-04T01:43:32;-3.10;99.90
4874;DHT22;2451;49.970;9.068;2023-12-04T01:45:59;-3.10;99.90
4874;DHT22;2451;49.970;9.068;2023-12-04T01:48:26;-3.10;99.90
4874;DHT22;2451;49.970;9.068;2023-12-04T01:50:54;-3.10;99.90
4874;DHT22;2451;49.970;9.068;2023-12-04T01:53:20;-3.10;99.90
4874;DHT22;2451;49.970;9.068;2023-12-04T01:55:47;-3.20;99.90
4874;DHT22;2451;49.970;9.068;2023-12-04T01:58:12;-3.20;99.90
4874;DHT22;2451;49.970;9.068;2023-12-04T02:00:38;-3.10;99.90
4874;DHT22;2451;49.970;9.068;2023-12-04T02:03:04;-3.20;99.90
4874;DHT22;2451;49.970;9.068;2023-12-04T02:05:31;-3.10;99.90
4874;DHT22;2451;49.970;9.068;2023-12-04T02:07:56;-3.20;99.90
4874;DHT22;2451;49.970;9.068;2023-12-04T02:10:22;-3.10;99.90
4874;DHT22;2451;49.970;9.068;2023-12-04T02:12:49;-3.10;99.90
4874;DHT22;2451;49.970;9.068;2023-12-04T02:15:15;-3.10;99.90
4874;DHT22;2451;49.970;9.068;2023-12-04T02:17:42;-3.20;99.90
4874;DHT22;2451;49.970;9.068;2023-12-04T02:20:08;-3.10;99.90
4874;DHT22;2451;49.970;9.068;2023-12-04T02:22:34;-3.10;99.90
4874;DHT22;2451;49.970;9.068;2023-12-04T02:25:00;-3.10;99.90
4874;DHT22;2451;49.970;9.068;2023-12-04T02:27:28;-3.10;99.90
4874;DHT22;2451;49.970;9.068;2023-12-04T02:29:59;-3.10;99.90
4874;DHT22;2451;49.970;9.068;2023-12-04T02:32:29;-3.10;99.90
4874;DHT22;2451;49.970;9.068;2023-12-04T02:34:56;-3.10;99.90
4874;DHT22;2451;49.970;9.068;2023-12-04T02:37:23;-3.10;99.90
4874;DHT22;2451;49.970;9.068;2023-12-04T02:39:50;-3.10;99.90
4874;DHT22;2451;49.970;9.068;2023-12-04T02:42:18;-3.10;99.90
4874;DHT22;2451;49.970;9.068;2023-12-04T02:44:44;-3.10;99.90
4874;DHT22;2451;49.970;9.068;2023-12-04T02:47:10;-3.10;99.90
4874;DHT22;2451;49.970;9.068;2023-12-04T02:49:35;-3.20;99.90
4874;DHT22;2451;49.970;9.068;2023-12-04T02:52:01;-3.20;99.90
4874;DHT22;2451;49.970;9.068;2023-12-04T02:54:28;-3.20;99.90
4874;DHT22;2451;49.970;9.068;2023-12-04T02:56:53;-3.30;99.90
4874;DHT22;2451;49.970;9.068;2023-12-04T02:59:19;-3.30;99.90
4874;DHT22;2451;49.970;9.068;2023-12-04T03:01:45;-3.30;99.90
4874;DHT22;2451;49.970;9.068;2023-12-04T03:04:10;-3.30;99.90
4874;DHT22;2451;49.970;9.068;2023-12-04T03:06:36;-3.30;99.90
4874;DHT22;2451;49.970;9.068;2023-12-04T03:09:03;-3.30;99.90
4874;DHT22;2451;49.970;9.068;2023-12-04T03:11:29;-3.30;99.90
4874;DHT22;2451;49.970;9.068;2023-12-04T03:13:54;-3.20;99.90
4874;DHT22;2451;49.970;9.068;2023-12-04T03:16:20;-3.20;99.90
4874;DHT22;2451;49.970;9.068;2023-12-04T03:18:46;-3.20;99.90
4874;DHT22;2451;49.970;9.068;2023-12-04T03:21:12;-3.20;99.90
4874;DHT22;2451;49.970;9.068;2023-12-04T03:23:37;-3.20;99.90
4874;DHT22;2451;49.970;9.068;2023-12-04T03:26:03;-3.20;99.90
4874;DHT22;2451;49.970;9.068;2023-12-04T03:28:29;-3.10;99.90
4874;DHT22;2451;49.970;9.068;2023-12-04T03:30:54;-3.10;99.90
4874;DHT22;2451;49.970;9.068;2023-12-04T03:33:20;-3.10;99.90
4874;DHT22;2451;49.970;9.068;2023-12-04T03:35:45;-3.10;99.90
4874;DHT22;2451;49.970;9.068;2023-12-04T03:38:11;-3.10;99.90
4874;DHT22;2451;49.970;9.068;2023-12-04T03:40:36;-3.10;99.90
4874;DHT22;2451;49.970;9.068;2023-12-04T03:43:02;-3.10;99.90
4874;DHT22;2451;49.970;9.068;2023-12-04T03:45:27;-3.00;99.90
4874;DHT22;2451;49.970;9.068;2023-12-04T03:47:53;-3.00;99.90
4874;DHT22;2451;49.970;9.068;2023-12-04T03:50:18;-3.00;99.90
4874;DHT22;2451;49.970;9.068;2023-12-04T03:52:44;-2.90;99.90
4874;DHT22;2451;49.970;9.068;2023-12-04T03:55:09;-2.90;99.90
4874;DHT22;2451;49.970;9.068;2023-12-04T03:57:35;-2.90;99.90
4874;DHT22;2451;49.970;9.068;2023-12-04T04:00:01;-2.80;99.90
4874;DHT22;2451;49.970;9.068;2023-12-04T04:02:27;-2.80;99.90
4874;DHT22;2451;49.970;9.068;2023-12-04T04:04:53;-2.80;99.90
4874;DHT22;2451;49.970;9.068;2023-12-04T04:07:18;-2.80;99.90
4874;DHT22;2451;49.970;9.068;2023-12-04T04:09:44;-2.80;99.90
4874;DHT22;2451;49.970;9.068;2023-12-04T04:12:09;-2.80;99.90
4874;DHT22;2451;49.970;9.068;2023-12-04T04:14:35;-2.80;99.90
4874;DHT22;2451;49.970;9.068;2023-12-04T04:17:00;-2.80;99.90
4874;DHT22;2451;49.970;9.068;2023-12-04T04:19:26;-2.80;99.90
4874;DHT22;2451;49.970;9.068;2023-12-04T04:21:51;-2.80;99.90
4874;DHT22;2451;49.970;9.068;2023-12-04T04:24:17;-2.80;99.90
4874;DHT22;2451;49.970;9.068;2023-12-04T04:26:42;-2.90;99.90
4874;DHT22;2451;49.970;9.068;2023-12-04T04:29:08;-2.90;99.90
4874;DHT22;2451;49.970;9.068;2023-12-04T04:31:34;-2.90;99.90
4874;DHT22;2451;49.970;9.068;2023-12-04T04:34:00;-2.90;99.90
4874;DHT22;2451;49.970;9.068;2023-12-04T04:36:25;-2.90;99.90
4874;DHT22;2451;49.970;9.068;2023-12-04T04:38:51;-2.90;99.90
4874;DHT22;2451;49.970;9.068;2023-12-04T04:41:16;-2.90;99.90
4874;DHT22;2451;49.970;9.068;2023-12-04T04:43:42;-2.90;99.90
4874;DHT22;2451;49.970;9.068;2023-12-04T04:46:08;-2.90;99.90
4874;DHT22;2451;49.970;9.068;2023-12-04T04:48:33;-2.90;99.90
4874;DHT22;2451;49.970;9.068;2023-12-04T04:50:59;-2.90;99.90
4874;DHT22;2451;49.970;9.068;2023-12-04T04:53:24;-2.90;99.90
4874;DHT22;2451;49.970;9.068;2023-12-04T04:55:50;-3.00;99.90
4874;DHT22;2451;49.970;9.068;2023-12-04T04:58:16;-3.00;99.90
4874;DHT22;2451;49.970;9.068;2023-12-04T05:00:42;-3.00;99.90
4874;DHT22;2451;49.970;9.068;2023-12-04T05:03:08;-2.90;99.90
4874;DHT22;2451;49.970;9.068;2023-12-04T05:05:33;-2.90;99.90
4874;DHT22;2451;49.970;9.068;2023-12-04T05:07:59;-2.90;99.90
4874;DHT22;2451;49.970;9.068;2023-12-04T05:10:24;-2.90;99.90
4874;DHT22;2451;49.970;9.068;2023-12-04T05:12:50;-2.90;99.90
4874;DHT22;2451;49.970;9.068;2023-12-04T05:15:15;-2.80;99.90
4874;DHT22;2451;49.970;9.068;2023-12-04T05:17:41;-2.80;99.90
4874;DHT22;2451;49.970;9.068;2023-12-04T05:20:07;-2.80;99.90
4874;DHT22;2451;49.970;9.068;2023-12-04T05:22:33;-2.80;99.90
4874;DHT22;2451;49.970;9.068;2023-12-04T05:24:59;-2.70;99.90
4874;DHT22;2451;49.970;9.068;2023-12-04T05:27:25;-2.70;99.90
4874;DHT22;2451;49.970;9.068;2023-12-04T05:29:50;-2.80;99.90
4874;DHT22;2451;49.970;9.068;2023-12-04T05:32:16;-2.70;99.90
4874;DHT22;2451;49.970;9.068;2023-12-04T05:34:42;-2.80;99.90
4874;DHT22;2451;49.970;9.068;2023-12-04T05:37:07;-2.70;99.90
4874;DHT22;2451;49.970;9.068;2023-12-04T05:39:33;-2.80;99.90
4874;DHT22;2451;49.970;9.068;2023-12-04T05:41:58;-2.80;99.90
4874;DHT22;2451;49.970;9.068;2023-12-04T05:44:24;-2.80;99.90
4874;DHT22;2451;49.970;9.068;2023-12-04T05:46:49;-2.80;99.90
4874;DHT22;2451;49.970;9.068;2023-12-04T05:49:15;-2.80;99.90
4874;DHT22;2451;49.970;9.068;2023-12-04T05:51:40;-2.80;99.90
4874;DHT22;2451;49.970;9.068;2023-12-04T05:54:06;-2.90;99.90
4874;DHT22;2451;49.970;9.068;2023-12-04T05:56:31;-2.80;99.90
4874;DHT22;2451;49.970;9.068;2023-12-04T05:58:57;-2.80;99.90
4874;DHT22;2451;49.970;9.068;2023-12-04T06:01:23;-2.80;99.90
4874;DHT22;2451;49.970;9.068;2023-12-04T06:03:48;-2.90;99.90
4874;DHT22;2451;49.970;9.068;2023-12-04T06:06:14;-2.80;99.90
4874;DHT22;2451;49.970;9.068;2023-12-04T06:08:39;-2.80;99.90
4874;DHT22;2451;49.970;9.068;2023-12-04T06:11:05;-2.80;99.90
4874;DHT22;2451;49.970;9.068;2023-12-04T06:13:31;-2.80;99.90
4874;DHT22;2451;49.970;9.068;2023-12-04T06:15:56;-2.80;99.90
4874;DHT22;2451;49.970;9.068;2023-12-04T06:18:22;-2.80;99.90
4874;DHT22;2451;49.970;9.068;2023-12-04T06:20:47;-2.80;99.90
4874;DHT22;2451;49.970;9.068;2023-12-04T06:23:13;-2.90;99.90
4874;DHT22;2451;49.970;9.068;2023-12-04T06:25:38;-2.90;99.90
4874;DHT22;2451;49.970;9.068;2023-12-04T06:28:04;-2.90;99.90
4874;DHT22;2451;49.970;9.068;2023-12-04T06:30:30;-2.90;99.90
4874;DHT22;2451;49.970;9.068;2023-12-04T06:32:56;-2.90;99.90
4874;DHT22;2451;49.970;9.068;2023-12-04T06:35:22;-2.90;99.90
4874;DHT22;2451;49.970;9.068;2023-12-04T06:37:48;-2.90;99.90
4874;DHT22;2451;49.970;9.068;2023-12-04T06:40:15;-2.90;99.90
4874;DHT22;2451;49.970;9.068;2023-12-04T06:42:42;-2.90;99.90
4874;DHT22;2451;49.970;9.068;2023-12-04T06:45:08;-2.90;99.90
4874;DHT22;2451;49.970;9.068;2023-12-04T06:47:34;-2.90;99.90
4874;DHT22;2451;49.970;9.068;2023-12-04T06:50:00;-2.90;99.90
4874;DHT22;2451;49.970;9.068;2023-12-04T06:52:25;-2.90;99.90
4874;DHT22;2451;49.970;9.068;2023-12-04T06:54:51;-2.90;99.90
4874;DHT22;2451;49.970;9.068;2023-12-04T06:57:16;-2.90;99.90
4874;DHT22;2451;49.970;9.068;2023-12-04T06:59:42;-2.90;99.90
4874;DHT22;2451;49.970;9.068;2023-12-04T07:02:08;-2.90;99.90
4874;DHT22;2451;49.970;9.068;2023-12-04T07:04:33;-2.90;99.90
4874;DHT22;2451;49.970;9.068;2023-12-04T07:06:59;-2.80;99.90
4874;DHT22;2451;49.970;9.068;2023-12-04T07:09:33;-2.80;99.90
4874;DHT22;2451;49.970;9.068;2023-12-04T07:12:02;-2.80;99.90
4874;DHT22;2451;49.970;9.068;2023-12-04T07:14:28;-2.80;99.90
4874;DHT22;2451;49.970;9.068;2023-12-04T07:16:53;-2.80;99.90
4874;DHT22;2451;49.970;9.068;2023-12-04T07:19:19;-2.80;99.90
4874;DHT22;2451;49.970;9.068;2023-12-04T07:21:45;-2.70;99.90
4874;DHT22;2451;49.970;9.068;2023-12-04T07:24:11;-2.80;99.90
4874;DHT22;2451;49.970;9.068;2023-12-04T07:26:36;-2.70;99.90
4874;DHT22;2451;49.970;9.068;2023-12-04T07:29:02;-2.80;99.90
4874;DHT22;2451;49.970;9.068;2023-12-04T07:31:28;-2.70;99.90
4874;DHT22;2451;49.970;9.068;2023-12-04T07:33:54;-2.70;99.90
4874;DHT22;2451;49.970;9.068;2023-12-04T07:36:20;-2.70;99.90
4874;DHT22;2451;49.970;9.068;2023-12-04T07:38:45;-2.60;99.90
4874;DHT22;2451;49.970;9.068;2023-12-04T07:41:11;-2.70;99.90
4874;DHT22;2451;49.970;9.068;2023-12-04T07:43:37;-2.60;99.90
4874;DHT22;2451;49.970;9.068;2023-12-04T07:46:02;-2.60;99.90
4874;DHT22;2451;49.970;9.068;2023-12-04T07:48:29;-2.60;99.90
4874;DHT22;2451;49.970;9.068;2023-12-04T07:50:55;-2.60;99.90
4874;DHT22;2451;49.970;9.068;2023-12-04T07:53:20;-2.60;99.90
4874;DHT22;2451;49.970;9.068;2023-12-04T07:55:46;-2.60;99.90
4874;DHT22;2451;49.970;9.068;2023-12-04T07:58:13;-2.60;99.90
4874;DHT22;2451;49.970;9.068;2023-12-04T08:00:39;-2.60;99.90
4874;DHT22;2451;49.970;9.068;2023-12-04T08:03:04;-2.60;99.90
4874;DHT22;2451;49.970;9.068;2023-12-04T08:05:30;-2.60;99.90
4874;DHT22;2451;49.970;9.068;2023-12-04T08:07:57;-2.60;99.90
4874;DHT22;2451;49.970;9.068;2023-12-04T08:10:23;-2.50;99.90
4874;DHT22;2451;49.970;9.068;2023-12-04T08:12:49;-2.50;99.90
4874;DHT22;2451;49.970;9.068;2023-12-04T08:15:14;-2.40;99.90
4874;DHT22;2451;49.970;9.068;2023-12-04T08:17:40;-2.40;99.90
4874;DHT22;2451;49.970;9.068;2023-12-04T08:20:07;-2.30;99.90
4874;DHT22;2451;49.970;9.068;2023-12-04T08:22:32;-2.30;99.90
4874;DHT22;2451;49.970;9.068;2023-12-04T08:24:58;-2.20;99.90
4874;DHT22;2451;49.970;9.068;2023-12-04T08:27:24;-2.20;99.90
4874;DHT22;2451;49.970;9.068;2023-12-04T08:29:50;-2.10;99.90
4874;DHT22;2451;49.970;9.068;2023-12-04T08:32:15;-2.00;99.90
4874;DHT22;2451;49.970;9.068;2023-12-04T08:34:42;-2.00;99.90
4874;DHT22;2451;49.970;9.068;2023-12-04T08:37:07;-1.90;99.90
4874;DHT22;2451;49.970;9.068;2023-12-04T08:39:33;-1.80;99.90
4874;DHT22;2451;49.970;9.068;2023-12-04T08:41:58;-1.80;99.90
4874;DHT22;2451;49.970;9.068;2023-12-04T08:44:24;-1.70;99.90
4874;DHT22;2451;49.970;9.068;2023-12-04T08:46:49;-1.70;99.90
4874;DHT22;2451;49.970;9.068;2023-12-04T08:49:15;-1.60;99.90
4874;DHT22;2451;49.970;9.068;2023-12-04T08:51:41;-1.60;99.90
4874;DHT22;2451;49.970;9.068;2023-12-04T08:54:07;-1.60;99.90
4874;DHT22;2451;49.970;9.068;2023-12-04T08:56:32;-1.50;99.90
4874;DHT22;2451;49.970;9.068;2023-12-04T08:58:58;-1.50;99.90
4874;DHT22;2451;49.970;9.068;2023-12-04T09:01:23;-1.50;99.90
4874;DHT22;2451;49.970;9.068;2023-12-04T09:03:51;-1.50;99.90
4874;DHT22;2451;49.970;9.068;2023-12-04T09:06:17;-1.50;99.90
4874;DHT22;2451;49.970;9.068;2023-12-04T09:08:42;-1.40;99.90
4874;DHT22;2451;49.970;9.068;2023-12-04T09:11:08;-1.40;99.90
4874;DHT22;2451;49.970;9.068;2023-12-04T09:13:34;-1.40;99.90
4874;DHT22;2451;49.970;9.068;2023-12-04T09:16:00;-1.50;99.90
4874;DHT22;2451;49.970;9.068;2023-12-04T09:18:25;-1.40;99.90
4874;DHT22;2451;49.970;9.068;2023-12-04T09:20:52;-1.40;99.90
4874;DHT22;2451;49.970;9.068;2023-12-04T09:23:17;-1.40;99.90
4874;DHT22;2451;49.970;9.068;2023-12-04T09:25:43;-1.30;99.90
4874;DHT22;2451;49.970;9.068;2023-12-04T09:28:08;-1.20;99.90
4874;DHT22;2451;49.970;9.068;2023-12-04T09:30:35;-1.20;99.90
4874;DHT22;2451;49.970;9.068;2023-12-04T09:33:01;-1.10;99.90
4874;DHT22;2451;49.970;9.068;2023-12-04T09:35:27;-1.10;99.90
4874;DHT22;2451;49.970;9.068;2023-12-04T09:37:52;-1.00;99.90
4874;DHT22;2451;49.970;9.068;2023-12-04T09:40:18;-1.00;99.90
4874;DHT22;2451;49.970;9.068;2023-12-04T09:42:43;-1.00;99.90
4874;DHT22;2451;49.970;9.068;2023-12-04T09:45:09;-0.90;99.90
4874;DHT22;2451;49.970;9.068;2023-12-04T09:47:36;-1.00;99.90
4874;DHT22;2451;49.970;9.068;2023-12-04T09:50:02;-1.00;99.90
4874;DHT22;2451;49.970;9.068;2023-12-04T09:52:28;-1.00;99.90
4874;DHT22;2451;49.970;9.068;2023-12-04T09:54:53;-1.00;99.90
4874;DHT22;2451;49.970;9.068;2023-12-04T09:57:19;-1.00;99.90
4874;DHT22;2451;49.970;9.068;2023-12-04T09:59:47;-1.00;99.90
4874;DHT22;2451;49.970;9.068;2023-12-04T10:02:14;-1.00;99.90
4874;DHT22;2451;49.970;9.068;2023-12-04T10:04:40;-0.90;99.90
4874;DHT22;2451;49.970;9.068;2023-12-04T10:07:06;-1.00;99.90
4874;DHT22;2451;49.970;9.068;2023-12-04T10:09:32;-1.00;99.90
4874;DHT22;2451;49.970;9.068;2023-12-04T10:11:58;-1.00;99.90
4874;DHT22;2451;49.970;9.068;2023-12-04T10:14:23;-1.00;99.90
4874;DHT22;2451;49.970;9.068;2023-12-04T10:16:51;-0.90;99.90
4874;DHT22;2451;49.970;9.068;2023-12-04T10:19:19;-0.90;99.90
4874;DHT22;2451;49.970;9.068;2023-12-04T10:21:46;-0.80;99.90
4874;DHT22;2451;49.970;9.068;2023-12-04T10:24:13;-0.80;99.90
4874;DHT22;2451;49.970;9.068;2023-12-04T10:26:51;-0.80;99.90
4874;DHT22;2451;49.970;9.068;2023-12-04T10:29:17;-0.80;99.90
4874;DHT22;2451;49.970;9.068;2023-12-04T10:31:42;-0.80;99.90
4874;DHT22;2451;49.970;9.068;2023-12-04T10:34:08;-0.90;99.90
4874;DHT22;2451;49.970;9.068;2023-12-04T10:36:39;-0.90;99.90
4874;DHT22;2451;49.970;9.068;2023-12-04T10:39:04;-0.90;99.90
4874;DHT22;2451;49.970;9.068;2023-12-04T10:41:30;-0.90;99.90
4874;DHT22;2451;49.970;9.068;2023-12-04T10:43:59;-0.90;99.90
4874;DHT22;2451;49.970;9.068;2023-12-04T10:46:27;-0.90;99.90
4874;DHT22;2451;49.970;9.068;2023-12-04T10:48:53;-0.90;99.90
4874;DHT22;2451;49.970;9.068;2023-12-04T10:51:19;-0.90;99.90
4874;DHT22;2451;49.970;9.068;2023-12-04T10:53:47;-0.90;99.90
4874;DHT22;2451;49.970;9.068;2023-12-04T10:56:25;-0.80;99.90
4874;DHT22;2451;49.970;9.068;2023-12-04T10:58:53;-0.80;99.90
4874;DHT22;2451;49.970;9.068;2023-12-04T11:01:22;-0.80;99.90
4874;DHT22;2451;49.970;9.068;2023-12-04T11:03:52;-0.90;99.90
4874;DHT22;2451;49.970;9.068;2023-12-04T11:06:18;-0.80;99.90
4874;DHT22;2451;49.970;9.068;2023-12-04T11:08:47;-0.90;99.90
4874;DHT22;2451;49.970;9.068;2023-12-04T11:11:16;-0.80;99.90
4874;DHT22;2451;49.970;9.068;2023-12-04T11:13:45;-0.90;99.90
4874;DHT22;2451;49.970;9.068;2023-12-04T11:16:38;-0.80;99.90
4874;DHT22;2451;49.970;9.068;2023-12-04T11:19:09;-0.80;99.90
4874;DHT22;2451;49.970;9.068;2023-12-04T11:21:39;-0.90;99.90
4874;DHT22;2451;49.970;9.068;2023-12-04T11:24:06;-0.80;99.90
4874;DHT22;2451;49.970;9.068;2023-12-04T11:26:33;-0.80;99.90
4874;DHT22;2451;49.970;9.068;2023-12-04T11:28:59;-0.80;99.90
4874;DHT22;2451;49.970;9.068;2023-12-04T11:31:25;-0.70;99.90
4874;DHT22;2451;49.970;9.068;2023-12-04T11:33:51;-0.70;99.90
4874;DHT22;2451;49.970;9.068;2023-12-04T11:36:17;-0.60;99.90
4874;DHT22;2451;49.970;9.068;2023-12-04T11:38:46;-0.60;99.90
4874;DHT22;2451;49.970;9.068;2023-12-04T11:43:42;-0.50;99.90
4874;DHT22;2451;49.970;9.068;2023-12-04T11:46:09;-0.50;99.90
4874;DHT22;2451;49.970;9.068;2023-12-04T11:48:37;-0.60;99.90
4874;DHT22;2451;49.970;9.068;2023-12-04T11:51:03;-0.60;99.90
4874;DHT22;2451;49.970;9.068;2023-12-04T11:53:29;-0.60;99.90
4874;DHT22;2451;49.970;9.068;2023-12-04T11:55:57;-0.60;99.90
4874;DHT22;2451;49.970;9.068;2023-12-04T11:58:22;-0.60;99.90
4874;DHT22;2451;49.970;9.068;2023-12-04T12:00:48;-0.60;99.90
4874;DHT22;2451;49.970;9.068;2023-12-04T12:03:15;-0.60;99.90
4874;DHT22;2451;49.970;9.068;2023-12-04T12:05:40;-0.60;99.90
4874;DHT22;2451;49.970;9.068;2023-12-04T12:08:07;-0.60;99.90
4874;DHT22;2451;49.970;9.068;2023-12-04T12:10:33;-0.60;99.90
4874;DHT22;2451;49.970;9.068;2023-12-04T12:12:59;-0.60;99.90
4874;DHT22;2451;49.970;9.068;2023-12-04T12:15:25;-0.60;99.90
4874;DHT22;2451;49.970;9.068;2023-12-04T12:17:51;-0.60;99.90
4874;DHT22;2451;49.970;9.068;2023-12-04T12:20:17;-0.70;99.90
4874;DHT22;2451;49.970;9.068;2023-12-04T12:22:43;-0.70;99.90
4874;DHT22;2451;49.970;9.068;2023-12-04T12:25:10;-0.70;99.90
4874;DHT22;2451;49.970;9.068;2023-12-04T12:27:37;-0.70;99.90
4874;DHT22;2451;49.970;9.068;2023-12-04T12:30:03;-0.70;99.90
4874;DHT22;2451;49.970;9.068;2023-12-04T12:32:31;-0.80;99.90
4874;DHT22;2451;49.970;9.068;2023-12-04T12:34:56;-0.80;99.90
4874;DHT22;2451;49.970;9.068;2023-12-04T12:37:22;-0.80;99.90
4874;DHT22;2451;49.970;9.068;2023-12-04T12:39:48;-0.80;99.90
4874;DHT22;2451;49.970;9.068;2023-12-04T12:42:26;-0.80;99.90
4874;DHT22;2451;49.970;9.068;2023-12-04T12:44:53;-0.90;99.90
4874;DHT22;2451;49.970;9.068;2023-12-04T12:47:18;-1.00;99.90
4874;DHT22;2451;49.970;9.068;2023-12-04T12:49:45;-1.10;99.90
4874;DHT22;2451;49.970;9.068;2023-12-04T12:52:11;-1.30;99.90
4874;DHT22;2451;49.970;9.068;2023-12-04T12:54:37;-1.40;99.90
4874;DHT22;2451;49.970;9.068;2023-12-04T12:57:03;-1.50;99.90
4874;DHT22;2451;49.970;9.068;2023-12-04T12:59:29;-1.50;99.90
4874;DHT22;2451;49.970;9.068;2023-12-04T13:01:54;-1.50;99.90
4874;DHT22;2451;49.970;9.068;2023-12-04T13:04:22;-1.50;99.90
4874;DHT22;2451;49.970;9.068;2023-12-04T13:06:48;-1.50;99.90
4874;DHT22;2451;49.970;9.068;2023-12-04T13:09:13;-1.50;99.90
4874;DHT22;2451;49.970;9.068;2023-12-04T13:11:45;-1.50;99.90
4874;DHT22;2451;49.970;9.068;2023-12-04T13:14:10;-1.50;99.90
4874;DHT22;2451;49.970;9.068;2023-12-04T13:16:36;-1.50;99.90
4874;DHT22;2451;49.970;9.068;2023-12-04T13:19:02;-1.50;99.90
4874;DHT22;2451;49.970;9.068;2023-12-04T13:21:27;-1.40;99.90
4874;DHT22;2451;49.970;9.068;2023-12-04T13:23:54;-1.40;99.90
4874;DHT22;2451;49.970;9.068;2023-12-04T13:26:20;-1.40;99.90
4874;DHT22;2451;49.970;9.068;2023-12-04T13:28:47;-1.40;99.90
4874;DHT22;2451;49.970;9.068;2023-12-04T13:31:13;-1.40;99.90
4874;DHT22;2451;49.970;9.068;2023-12-04T13:33:38;-1.40;99.90
4874;DHT22;2451;49.970;9.068;2023-12-04T13:36:04;-1.30;99.90
4874;DHT22;2451;49.970;9.068;2023-12-04T13:38:30;-1.30;99.90
4874;DHT22;2451;49.970;9.068;2023-12-04T13:40:56;-1.30;99.90
4874;DHT22;2451;49.970;9.068;2023-12-04T13:43:47;-1.30;99.90
4874;DHT22;2451;49.970;9.068;2023-12-04T13:46:16;-1.20;99.90
4874;DHT22;2451;49.970;9.068;2023-12-04T13:48:41;-1.20;99.90
4874;DHT22;2451;49.970;9.068;2023-12-04T13:51:10;-1.20;99.90
4874;DHT22;2451;49.970;9.068;2023-12-04T13:53:36;-1.10;99.90
4874;DHT22;2451;49.970;9.068;2023-12-04T13:56:05;-1.20;99.90
4874;DHT22;2451;49.970;9.068;2023-12-04T13:58:54;-1.10;99.90
4874;DHT22;2451;49.970;9.068;2023-12-04T14:01:23;-1.10;99.90
4874;DHT22;2451;49.970;9.068;2023-12-04T14:03:50;-1.10;99.90
4874;DHT22;2451;49.970;9.068;2023-12-04T14:06:16;-1.10;99.90
4874;DHT22;2451;49.970;9.068;2023-12-04T14:08:42;-1.10;99.90
4874;DHT22;2451;49.970;9.068;2023-12-04T14:11:07;-1.10;99.90
4874;DHT22;2451;49.970;9.068;2023-12-04T14:13:35;-1.20;99.90
4874;DHT22;2451;49.970;9.068;2023-12-04T14:16:01;-1.20;99.90
4874;DHT22;2451;49.970;9.068;2023-12-04T14:18:27;-1.20;99.90
4874;DHT22;2451;49.970;9.068;2023-12-04T14:20:55;-1.10;99.90
4874;DHT22;2451;49.970;9.068;2023-12-04T14:23:21;-1.20;99.90
4874;DHT22;2451;49.970;9.068;2023-12-04T14:25:47;-1.10;99.90
4874;DHT22;2451;49.970;9.068;2023-12-04T14:28:12;-1.10;99.90
4874;DHT22;2451;49.970;9.068;2023-12-04T14:30:38;-1.10;99.90
4874;DHT22;2451;49.970;9.068;2023-12-04T14:33:03;-1.10;99.90
4874;DHT22;2451;49.970;9.068;2023-12-04T14:35:29;-1.10;99.90
4874;DHT22;2451;49.970;9.068;2023-12-04T14:37:55;-1.10;99.90
4874;DHT22;2451;49.970;9.068;2023-12-04T14:40:20;-1.10;99.90
4874;DHT22;2451;49.970;9.068;2023-12-04T14:42:46;-1.10;99.90
4874;DHT22;2451;49.970;9.068;2023-12-04T14:45:13;-1.10;99.90
4874;DHT22;2451;49.970;9.068;2023-12-04T14:47:39;-1.10;99.90
4874;DHT22;2451;49.970;9.068;2023-12-04T14:50:05;-1.10;99.90
4874;DHT22;2451;49.970;9.068;2023-12-04T14:52:32;-1.10;99.90
4874;DHT22;2451;49.970;9.068;2023-12-04T14:54:59;-1.10;99.90
4874;DHT22;2451;49.970;9.068;2023-12-04T14:57:34;-1.00;99.90
4874;DHT22;2451;49.970;9.068;2023-12-04T15:00:06;-1.00;99.90
4874;DHT22;2451;49.970;9.068;2023-12-04T15:02:35;-1.00;99.90
4874;DHT22;2451;49.970;9.068;2023-12-04T15:05:19;-1.00;99.90
4874;DHT22;2451;49.970;9.068;2023-12-04T15:08:03;-1.00;99.90
4874;DHT22;2451;49.970;9.068;2023-12-04T15:10:49;-1.00;99.90
4874;DHT22;2451;49.970;9.068;2023-12-04T15:13:40;-1.00;99.90
4874;DHT22;2451;49.970;9.068;2023-12-04T15:16:28;-1.00;99.90
4874;DHT22;2451;49.970;9.068;2023-12-04T15:19:01;-1.00;99.90
4874;DHT22;2451;49.970;9.068;2023-12-04T15:21:52;-1.00;99.90
4874;DHT22;2451;49.970;9.068;2023-12-04T15:24:18;-1.00;99.90
4874;DHT22;2451;49.970;9.068;2023-12-04T15:26:44;-1.00;99.90
4874;DHT22;2451;49.970;9.068;2023-12-04T15:29:09;-1.00;99.90
4874;DHT22;2451;49.970;9.068;2023-12-04T15:31:35;-1.00;99.90
4874;DHT22;2451;49.970;9.068;2023-12-04T15:34:02;-1.00;99.90
4874;DHT22;2451;49.970;9.068;2023-12-04T15:36:29;-1.00;99.90
4874;DHT22;2451;49.970;9.068;2023-12-04T15:38:54;-1.00;99.90
4874;DHT22;2451;49.970;9.068;2023-12-04T15:41:20;-1.00;99.90
4874;DHT22;2451;49.970;9.068;2023-12-04T15:43:46;-1.00;99.90
4874;DHT22;2451;49.970;9.068;2023-12-04T15:46:14;-1.00;99.90
4874;DHT22;2451;49.970;9.068;2023-12-04T15:48:40;-0.90;99.90
4874;DHT22;2451;49.970;9.068;2023-12-04T15:51:05;-1.00;99.90
4874;DHT22;2451;49.970;9.068;2023-12-04T15:53:31;-1.00;99.90
4874;DHT22;2451;49.970;9.068;2023-12-04T15:55:56;-1.00;99.90
4874;DHT22;2451;49.970;9.068;2023-12-04T15:58:22;-1.00;99.90
4874;DHT22;2451;49.970;9.068;2023-12-04T16:00:48;-1.00;99.90